createdAt,value
2023-01-28T00:02:01.303Z,101401.28
2023-01-28T00:06:05.313Z,101400.41
2023-01-28T00:10:07.124Z,101408.66
2023-01-28T00:14:13.184Z,101396.09
2023-01-28T00:18:14.833Z,101394.19
2023-01-28T00:22:16.463Z,101394.19
2023-01-28T00:26:18.698Z,101399.03
2023-01-28T00:30:20.774Z,101386.38
2023-01-28T00:34:22.386Z,101398.94
2023-01-28T00:38:23.936Z,101386.38
2023-01-28T00:42:25.517Z,101387.16
2023-01-28T00:46:30.565Z,101384.72
2023-01-28T00:50:32.239Z,101388.91
2023-01-28T00:54:33.785Z,101389.91
2023-01-28T00:58:35.362Z,101388.25
2023-01-28T01:02:36.988Z,101384.06
2023-01-28T01:06:41.052Z,101388.59
2023-01-28T01:10:42.565Z,101386.06
2023-01-28T01:14:44.127Z,101395.44
2023-01-28T01:18:45.714Z,101392.25
2023-01-28T01:22:47.401Z,101396.28
2023-01-28T01:26:49.598Z,101402.78
2023-01-28T01:30:58.796Z,101402.78
2023-01-28T01:35:01.071Z,101407.94
2023-01-28T01:39:02.666Z,101410.38
2023-01-28T01:43:15.835Z,101413.09
2023-01-28T01:47:18.731Z,101410.31
2023-01-28T01:51:27.676Z,101404.91
2023-01-28T01:55:35.753Z,101396.41
2023-01-28T01:59:42.235Z,101403.13
2023-01-28T02:04:04.742Z,101409.31
2023-01-28T02:08:21.857Z,101412.22
2023-01-28T02:12:29.124Z,101408.13
2023-01-28T02:16:31.336Z,101404.28
2023-01-28T02:21:01.949Z,101406.19
2023-01-28T02:25:28.080Z,101418.38
2023-01-28T02:30:03.213Z,101418.50
2023-01-28T02:34:46.830Z,101411.03
2023-01-28T02:38:50.273Z,101412.22
2023-01-28T02:42:51.821Z,101411.84
2023-01-28T02:47:11.976Z,101414.56
2023-01-28T02:51:26.241Z,101399.97
2023-01-28T02:56:32.586Z,101394.56
2023-01-28T03:00:37.769Z,101399.41
2023-01-28T03:04:50.576Z,101401.44
2023-01-28T03:09:21.461Z,101413.25
2023-01-28T03:13:41.380Z,101411.50
2023-01-28T03:18:05.498Z,101408.81
2023-01-28T03:22:25.698Z,101410.84
2023-01-28T03:26:50.161Z,101420.69
2023-01-28T03:31:21.215Z,101420.44
2023-01-28T03:35:49.007Z,101425.53
2023-01-28T03:39:50.721Z,101424.63
2023-01-28T03:43:54.268Z,101427.03
2023-01-28T03:47:55.911Z,101435.25
2023-01-28T03:51:57.491Z,101438.56
2023-01-28T03:55:59.405Z,101441.19
2023-01-28T04:00:00.985Z,101451.06
2023-01-28T04:04:03.072Z,101451.31
2023-01-28T04:08:05.170Z,101455.97
2023-01-28T04:12:24.609Z,101458.66
2023-01-28T04:16:27.403Z,101464.59
2023-01-28T04:20:29.555Z,101451.03
2023-01-28T04:24:34.237Z,101457.63
2023-01-28T04:28:36.004Z,101454.47
2023-01-28T04:32:37.995Z,101463.34
2023-01-28T04:36:59.914Z,101463.22
2023-01-28T04:41:40.061Z,101458.81
2023-01-28T04:45:57.049Z,101468.28
2023-01-28T04:50:15.738Z,101463.34
2023-01-28T04:54:34.816Z,101467.13
2023-01-28T04:58:39.850Z,101483.34
2023-01-28T05:02:47.127Z,101470.78
2023-01-28T05:06:48.749Z,101478.50
2023-01-28T05:10:57.597Z,101475.19
2023-01-28T05:15:00.589Z,101476.63
2023-01-28T05:19:03.029Z,101484.44
2023-01-28T05:23:09.668Z,101479.63
2023-01-28T05:27:23.683Z,101488.00
2023-01-28T05:31:25.453Z,101488.50
2023-01-28T05:35:27.478Z,101489.66
2023-01-28T05:39:29.060Z,101491.03
2023-01-28T05:43:30.725Z,101494.09
2023-01-28T05:47:51.036Z,101502.44
2023-01-28T05:52:15.348Z,101502.44
2023-01-28T05:56:16.965Z,101504.22
2023-01-28T06:00:19.036Z,101516.75
2023-01-28T06:04:20.943Z,101516.13
2023-01-28T06:08:23.301Z,101517.38
2023-01-28T06:12:25.086Z,101520.84
2023-01-28T06:16:52.141Z,101531.22
2023-01-28T06:21:12.120Z,101534.72
2023-01-28T06:25:13.944Z,101532.47
2023-01-28T06:29:15.875Z,101542.69
2023-01-28T06:33:18.347Z,101539.41
2023-01-28T06:37:20.245Z,101546.13
2023-01-28T06:41:22.127Z,101562.19
2023-01-28T06:45:23.733Z,101567.53
2023-01-28T06:49:25.387Z,101572.69
2023-01-28T06:53:26.927Z,101576.09
2023-01-28T06:57:28.562Z,101576.41
2023-01-28T07:01:30.157Z,101581.09
2023-01-28T07:05:32.198Z,101580.22
2023-01-28T07:09:33.781Z,101586.28
2023-01-28T07:13:35.646Z,101589.47
2023-01-28T07:17:41.483Z,101587.41
2023-01-28T07:21:43.032Z,101592.47
2023-01-28T07:25:44.602Z,101591.47
2023-01-28T07:29:46.193Z,101588.06
2023-01-28T07:33:47.719Z,101597.31
2023-01-28T07:37:57.132Z,101592.47
2023-01-28T07:41:58.732Z,101600.31
2023-01-28T07:46:13.870Z,101604.25
2023-01-28T07:50:17.088Z,101601.97
2023-01-28T07:54:18.972Z,101602.84
2023-01-28T07:58:20.657Z,101608.44
2023-01-28T08:02:22.390Z,101608.16
2023-01-28T08:06:23.972Z,101615.50
2023-01-28T08:10:25.707Z,101620.44
2023-01-28T08:14:27.567Z,101617.88
2023-01-28T08:18:29.223Z,101624.09
2023-01-28T08:22:30.795Z,101631.19
2023-01-28T08:26:32.316Z,101632.16
2023-01-28T08:30:35.405Z,101631.78
2023-01-28T08:34:36.936Z,101627.97
2023-01-28T08:38:38.464Z,101635.06
2023-01-28T08:42:39.966Z,101634.44
2023-01-28T08:46:41.594Z,101640.38
2023-01-28T08:50:43.567Z,101643.66
2023-01-28T08:54:45.106Z,101635.31
2023-01-28T08:58:46.668Z,101644.66
2023-01-28T09:02:51.279Z,101641.50
2023-01-28T09:06:53.993Z,101644.16
2023-01-28T09:10:59.204Z,101640.31
2023-01-28T09:15:00.749Z,101640.47
2023-01-28T09:19:02.242Z,101645.91
2023-01-28T09:23:03.869Z,101636.16
2023-01-28T09:27:05.436Z,101646.88
2023-01-28T09:31:12.073Z,101650.91
2023-01-28T09:35:15.213Z,101660.16
2023-01-28T09:39:16.734Z,101662.16
2023-01-28T09:43:54.435Z,101664.28
2023-01-28T09:48:00.172Z,101671.06
2023-01-28T09:52:01.795Z,101673.09
2023-01-28T09:56:08.290Z,101677.16
2023-01-28T10:00:15.712Z,101672.47
2023-01-28T10:04:43.966Z,101683.25
2023-01-28T10:09:20.162Z,101674.59
2023-01-28T10:13:39.871Z,101677.53
2023-01-28T10:17:48.345Z,101669.59
2023-01-28T10:21:56.067Z,101670.59
2023-01-28T10:26:00.223Z,101670.28
2023-01-28T10:30:25.684Z,101665.16
2023-01-28T10:34:27.309Z,101668.03
2023-01-28T10:38:31.273Z,101669.81
2023-01-28T10:42:38.052Z,101675.53
2023-01-28T10:46:41.404Z,101668.91
2023-01-28T10:50:56.981Z,101673.16
2023-01-28T10:55:06.749Z,101675.84
2023-01-28T10:59:36.544Z,101667.44
2023-01-28T11:03:38.586Z,101673.19
2023-01-28T11:07:40.222Z,101668.28
2023-01-28T11:11:41.790Z,101672.59
2023-01-28T11:16:05.246Z,101676.47
2023-01-28T11:20:21.022Z,101682.41
2023-01-28T11:24:27.635Z,101686.91
2023-01-28T11:28:30.493Z,101688.78
2023-01-28T11:32:33.040Z,101689.00
2023-01-28T11:36:35.464Z,101681.59
2023-01-28T11:40:36.999Z,101689.63
2023-01-28T11:44:39.174Z,101677.91
2023-01-28T11:48:56.037Z,101681.41
2023-01-28T11:53:08.007Z,101677.22
2023-01-28T11:57:27.989Z,101671.53
2023-01-28T12:02:10.039Z,101675.06
2023-01-28T12:06:42.818Z,101671.81
2023-01-28T12:10:53.965Z,101667.41
2023-01-28T12:15:26.337Z,101664.44
2023-01-28T12:19:36.388Z,101656.84
2023-01-28T12:23:40.673Z,101651.25
2023-01-28T12:28:16.213Z,101650.66
2023-01-28T12:32:31.530Z,101663.00
2023-01-28T12:36:46.853Z,101661.34
2023-01-28T12:41:01.030Z,101646.09
2023-01-28T12:45:19.064Z,101651.53
2023-01-28T12:49:35.624Z,101653.78
2023-01-28T12:53:43.444Z,101651.25
2023-01-28T12:57:45.700Z,101654.91
2023-01-28T13:02:11.623Z,101652.22
2023-01-28T13:06:24.544Z,101654.59
2023-01-28T13:10:35.348Z,101660.88
2023-01-28T13:14:37.195Z,101661.75
2023-01-28T13:18:43.951Z,101656.44
2023-01-28T13:22:46.143Z,101655.19
2023-01-28T13:26:57.820Z,101663.47
2023-01-28T13:31:08.896Z,101658.53
2023-01-28T13:35:53.138Z,101657.59
2023-01-28T13:40:07.083Z,101669.94
2023-01-28T13:44:35.020Z,101679.72
2023-01-28T13:48:39.209Z,101683.06
2023-01-28T13:52:50.582Z,101686.91
2023-01-28T13:57:01.134Z,101696.16
2023-01-28T14:01:13.132Z,101705.81
2023-01-28T14:05:22.730Z,101708.38
2023-01-28T14:09:55.216Z,101715.75
2023-01-28T14:13:59.610Z,101724.09
2023-01-28T14:18:01.848Z,101725.91
2023-01-28T14:22:10.552Z,101735.91
2023-01-28T14:26:46.817Z,101732.03
2023-01-28T14:31:00.631Z,101741.16
2023-01-28T14:35:08.794Z,101743.69
2023-01-28T14:39:19.529Z,101743.69
2023-01-28T14:43:24.835Z,101742.28
2023-01-28T14:47:40.024Z,101743.81
2023-01-28T14:52:19.384Z,101743.69
2023-01-28T14:56:43.248Z,101743.81
2023-01-28T15:00:54.612Z,101741.16
2023-01-28T15:05:08.277Z,101745.59
2023-01-28T15:09:13.339Z,101753.38
2023-01-28T15:13:34.249Z,101757.19
2023-01-28T15:17:35.927Z,101766.06
2023-01-28T15:21:38.264Z,101768.59
2023-01-28T15:25:39.832Z,101767.22
2023-01-28T15:29:41.430Z,101780.03
2023-01-28T15:33:43.054Z,101779.28
2023-01-28T15:37:44.647Z,101779.00
2023-01-28T15:41:51.568Z,101772.56
2023-01-28T15:45:55.983Z,101766.47
2023-01-28T15:50:01.274Z,101757.59
2023-01-28T15:54:08.910Z,101767.88
2023-01-28T15:58:28.343Z,101762.28
2023-01-28T16:02:31.535Z,101766.38
2023-01-28T16:06:38.990Z,101785.09
2023-01-28T16:10:40.609Z,101765.09
2023-01-28T16:14:53.707Z,101774.22
2023-01-28T16:18:56.042Z,101779.91
2023-01-28T16:23:03.951Z,101773.34
2023-01-28T16:27:19.174Z,101775.34
2023-01-28T16:31:21.409Z,101778.66
2023-01-28T16:35:42.941Z,101784.59
2023-01-28T16:39:51.938Z,101793.72
2023-01-28T16:43:53.702Z,101796.63
2023-01-28T16:47:55.370Z,101798.53
2023-01-28T16:51:57.059Z,101797.41
2023-01-28T16:55:59.165Z,101801.31
2023-01-28T17:00:00.766Z,101808.03
2023-01-28T17:04:11.556Z,101810.56
2023-01-28T17:08:14.351Z,101811.19
2023-01-28T17:12:16.096Z,101804.50
2023-01-28T17:16:17.763Z,101821.69
2023-01-28T17:20:19.800Z,101821.34
2023-01-28T17:24:21.494Z,101812.97
2023-01-28T17:28:23.239Z,101820.34
2023-01-28T17:32:24.977Z,101814.22
2023-01-28T17:36:27.545Z,101822.72
2023-01-28T17:40:29.560Z,101830.16
2023-01-28T17:44:31.200Z,101832.59
2023-01-28T17:48:34.034Z,101837.75
2023-01-28T17:52:35.596Z,101836.09
2023-01-28T17:56:38.863Z,101842.41
2023-01-28T18:00:40.622Z,101850.09
2023-01-28T18:04:43.427Z,101860.56
2023-01-28T18:08:45.543Z,101858.69
2023-01-28T18:12:47.153Z,101859.13
2023-01-28T18:16:48.851Z,101866.56
2023-01-28T18:21:00.279Z,101865.66
2023-01-28T18:25:02.010Z,101877.44
2023-01-28T18:29:04.250Z,101878.59
2023-01-28T18:33:05.859Z,101869.84
2023-01-28T18:37:08.556Z,101869.41
2023-01-28T18:41:10.229Z,101873.13
2023-01-28T18:45:11.840Z,101877.78
2023-01-28T18:49:13.796Z,101882.47
2023-01-28T18:53:15.461Z,101880.91
2023-01-28T18:57:17.091Z,101884.53
2023-01-28T19:01:18.692Z,101876.22
2023-01-28T19:05:20.339Z,101885.31
2023-01-28T19:09:21.891Z,101873.75
2023-01-28T19:13:23.476Z,101873.72
2023-01-28T19:17:25.233Z,101880.88
2023-01-28T19:21:31.102Z,101891.09
2023-01-28T19:25:35.537Z,101912.41
2023-01-28T19:29:37.121Z,101917.34
2023-01-28T19:33:38.619Z,101925.97
2023-01-28T19:37:40.307Z,101926.25
2023-01-28T19:41:41.855Z,101925.69
2023-01-28T19:45:43.459Z,101928.16
2023-01-28T19:49:44.984Z,101932.06
2023-01-28T19:53:50.376Z,101934.25
2023-01-28T19:57:51.997Z,101944.19
2023-01-28T20:01:53.597Z,101945.09
2023-01-28T20:05:59.493Z,101949.41
2023-01-28T20:10:01.147Z,101954.25
2023-01-28T20:14:02.968Z,101950.66
2023-01-28T20:18:05.053Z,101958.34
2023-01-28T20:22:06.640Z,101960.63
2023-01-28T20:26:08.276Z,101963.81
2023-01-28T20:30:10.582Z,101953.78
2023-01-28T20:34:18.243Z,101955.13
2023-01-28T20:38:20.246Z,101957.00
2023-01-28T20:42:21.795Z,101964.97
2023-01-28T20:46:26.255Z,101971.06
2023-01-28T20:50:27.859Z,101972.84
2023-01-28T20:54:29.663Z,101965.13
2023-01-28T20:58:31.845Z,101964.09
2023-01-28T21:02:35.557Z,101975.97
2023-01-28T21:06:37.945Z,101972.19
2023-01-28T21:10:40.759Z,101983.03
2023-01-28T21:14:42.322Z,101990.50
2023-01-28T21:18:44.087Z,101993.97
2023-01-28T21:22:51.008Z,101991.28
2023-01-28T21:26:52.577Z,101988.91
2023-01-28T21:30:54.123Z,101990.13
2023-01-28T21:34:55.783Z,101991.34
2023-01-28T21:39:00.001Z,102002.22
2023-01-28T21:43:01.794Z,101993.56
2023-01-28T21:47:03.421Z,101995.94
2023-01-28T21:51:26.721Z,102004.97
2023-01-28T21:55:28.261Z,101992.16
2023-01-28T21:59:32.652Z,101995.72
2023-01-28T22:03:34.231Z,101975.22
2023-01-28T22:07:35.777Z,101977.75
2023-01-28T22:11:42.158Z,101974.06
2023-01-28T22:15:45.342Z,101984.44
2023-01-28T22:19:48.184Z,101973.28
2023-01-28T22:23:50.193Z,101969.94
2023-01-28T22:27:51.875Z,101976.38
2023-01-28T22:31:54.383Z,101957.03
2023-01-28T22:35:56.001Z,101956.09
2023-01-28T22:39:57.550Z,101953.31
2023-01-28T22:44:01.618Z,101953.88
2023-01-28T22:48:03.414Z,101955.31
2023-01-28T22:52:05.199Z,101961.41
2023-01-28T22:56:07.150Z,101949.38
2023-01-28T23:00:12.317Z,101956.25
2023-01-28T23:04:13.832Z,101941.72
2023-01-28T23:08:15.472Z,101938.75
2023-01-28T23:12:17.062Z,101937.91
2023-01-28T23:16:37.553Z,101950.13
2023-01-28T23:20:59.169Z,101949.59
2023-01-28T23:25:00.743Z,101960.09
2023-01-28T23:29:02.264Z,101961.88
2023-01-28T23:33:04.410Z,101960.72
2023-01-28T23:37:08.625Z,101965.19
2023-01-28T23:41:10.274Z,101967.00
2023-01-28T23:45:11.974Z,101947.56
2023-01-28T23:49:13.518Z,101952.44
2023-01-28T23:53:15.072Z,101955.84
2023-01-28T23:57:16.764Z,101948.28
